sensor_id;sensor_type;location;lat;lon;timestamp;pressure;altitude;pressure_sealevel;temperature;humidity
24610;BME280;12758;47.890;11.694;2023-03-14T00:02:19;92474.56;;;9.47;100.00
24610;BME280;12758;47.890;11.694;2023-03-14T00:04:45;92439.22;;;9.59;100.00
24610;BME280;12758;47.890;11.694;2023-03-14T00:07:11;92411.00;;;9.41;100.00
24610;BME280;12758;47.890;11.694;2023-03-14T00:09:38;92404.38;;;9.57;100.00
24610;BME280;12758;47.890;11.694;2023-03-14T00:12:04;92386.88;;;9.74;100.00
24610;BME280;12758;47.890;11.694;2023-03-14T00:14:32;92407.84;;;9.77;100.00
24610;BME280;12758;47.890;11.694;2023-03-14T00:16:58;92410.28;;;9.83;100.00
24610;BME280;12758;47.890;11.694;2023-03-14T00:19:24;92408.75;;;9.85;100.00
24610;BME280;12758;47.890;11.694;2023-03-14T00:21:50;92413.38;;;9.85;100.00
24610;BME280;12758;47.890;11.694;2023-03-14T00:24:16;92437.56;;;9.93;100.00
24610;BME280;12758;47.890;11.694;2023-03-14T00:26:43;92447.97;;;9.91;100.00
24610;BME280;12758;47.890;11.694;2023-03-14T00:29:09;92437.38;;;9.83;100.00
24610;BME280;12758;47.890;11.694;2023-03-14T00:31:35;92424.94;;;9.82;100.00
24610;BME280;12758;47.890;11.694;2023-03-14T00:34:01;92430.69;;;9.57;100.00
24610;BME280;12758;47.890;11.694;2023-03-14T00:36:27;92438.50;;;9.62;100.00
24610;BME280;12758;47.890;11.694;2023-03-14T00:38:53;92433.94;;;9.86;100.00
24610;BME280;12758;47.890;11.694;2023-03-14T00:41:21;92426.22;;;9.88;100.00
24610;BME280;12758;47.890;11.694;2023-03-14T00:43:49;92436.34;;;9.91;100.00
24610;BME280;12758;47.890;11.694;2023-03-14T00:46:15;92428.22;;;9.91;100.00
24610;BME280;12758;47.890;11.694;2023-03-14T00:48:41;92431.38;;;9.93;100.00
24610;BME280;12758;47.890;11.694;2023-03-14T00:51:08;92440.28;;;9.74;100.00
24610;BME280;12758;47.890;11.694;2023-03-14T00:53:35;92441.44;;;9.53;100.00
24610;BME280;12758;47.890;11.694;2023-03-14T00:56:02;92440.03;;;9.24;100.00
24610;BME280;12758;47.890;11.694;2023-03-14T00:58:28;92438.34;;;9.16;100.00
24610;BME280;12758;47.890;11.694;2023-03-14T01:00:55;92437.19;;;8.66;100.00
24610;BME280;12758;47.890;11.694;2023-03-14T01:03:21;92432.69;;;8.38;100.00
24610;BME280;12758;47.890;11.694;2023-03-14T01:05:47;92424.81;;;8.65;100.00
24610;BME280;12758;47.890;11.694;2023-03-14T01:08:13;92428.28;;;8.81;100.00
24610;BME280;12758;47.890;11.694;2023-03-14T01:10:40;92429.75;;;8.95;100.00
24610;BME280;12758;47.890;11.694;2023-03-14T01:13:06;92416.53;;;9.09;100.00
24610;BME280;12758;47.890;11.694;2023-03-14T01:15:32;92419.66;;;9.11;100.00
24610;BME280;12758;47.890;11.694;2023-03-14T01:17:59;92433.00;;;9.20;100.00
24610;BME280;12758;47.890;11.694;2023-03-14T01:20:25;92437.78;;;9.26;100.00
24610;BME280;12758;47.890;11.694;2023-03-14T01:22:51;92418.56;;;9.31;100.00
24610;BME280;12758;47.890;11.694;2023-03-14T01:25:17;92423.91;;;9.28;100.00
24610;BME280;12758;47.890;11.694;2023-03-14T01:27:43;92411.41;;;9.23;100.00
24610;BME280;12758;47.890;11.694;2023-03-14T01:30:11;92418.94;;;9.14;100.00
24610;BME280;12758;47.890;11.694;2023-03-14T01:32:37;92420.38;;;9.08;100.00
24610;BME280;12758;47.890;11.694;2023-03-14T01:35:04;92421.78;;;9.02;100.00
24610;BME280;12758;47.890;11.694;2023-03-14T01:37:31;92416.22;;;8.95;100.00
24610;BME280;12758;47.890;11.694;2023-03-14T01:39:57;92427.03;;;8.95;100.00
24610;BME280;12758;47.890;11.694;2023-03-14T01:42:23;92429.31;;;8.93;100.00
24610;BME280;12758;47.890;11.694;2023-03-14T01:44:50;92431.13;;;9.04;100.00
24610;BME280;12758;47.890;11.694;2023-03-14T01:47:17;92441.31;;;9.11;100.00
24610;BME280;12758;47.890;11.694;2023-03-14T01:49:43;92442.41;;;8.91;100.00
24610;BME280;12758;47.890;11.694;2023-03-14T01:52:12;92433.59;;;8.94;100.00
24610;BME280;12758;47.890;11.694;2023-03-14T01:54:40;92435.69;;;8.84;100.00
24610;BME280;12758;47.890;11.694;2023-03-14T01:57:08;92434.41;;;8.78;100.00
24610;BME280;12758;47.890;11.694;2023-03-14T01:59:36;92436.66;;;8.76;100.00
24610;BME280;12758;47.890;11.694;2023-03-14T02:02:03;92433.09;;;8.72;100.00
24610;BME280;12758;47.890;11.694;2023-03-14T02:04:33;92432.50;;;8.63;100.00
24610;BME280;12758;47.890;11.694;2023-03-14T02:07:03;92434.78;;;8.61;100.00
24610;BME280;12758;47.890;11.694;2023-03-14T02:09:32;92442.44;;;8.59;100.00
24610;BME280;12758;47.890;11.694;2023-03-14T02:11:58;92446.31;;;8.58;100.00
24610;BME280;12758;47.890;11.694;2023-03-14T02:14:28;92434.78;;;8.61;100.00
24610;BME280;12758;47.890;11.694;2023-03-14T02:16:55;92438.59;;;8.60;100.00
24610;BME280;12758;47.890;11.694;2023-03-14T02:19:32;92445.41;;;8.54;100.00
24610;BME280;12758;47.890;11.694;2023-03-14T02:22:05;92439.22;;;8.53;100.00
24610;BME280;12758;47.890;11.694;2023-03-14T02:24:37;92436.19;;;8.55;100.00
24610;BME280;12758;47.890;11.694;2023-03-14T02:27:07;92452.53;;;8.30;100.00
24610;BME280;12758;47.890;11.694;2023-03-14T02:29:35;92450.81;;;8.22;100.00
24610;BME280;12758;47.890;11.694;2023-03-14T02:32:03;92449.22;;;8.21;100.00
24610;BME280;12758;47.890;11.694;2023-03-14T02:34:29;92461.16;;;8.20;100.00
24610;BME280;12758;47.890;11.694;2023-03-14T02:36:57;92460.94;;;8.25;100.00
24610;BME280;12758;47.890;11.694;2023-03-14T02:39:26;92462.47;;;8.26;100.00
24610;BME280;12758;47.890;11.694;2023-03-14T02:41:54;92458.97;;;8.10;100.00
24610;BME280;12758;47.890;11.694;2023-03-14T02:44:21;92461.06;;;8.01;100.00
24610;BME280;12758;47.890;11.694;2023-03-14T02:46:47;92448.88;;;8.07;100.00
24610;BME280;12758;47.890;11.694;2023-03-14T02:49:14;92445.34;;;7.90;100.00
24610;BME280;12758;47.890;11.694;2023-03-14T02:51:40;92424.16;;;7.92;100.00
24610;BME280;12758;47.890;11.694;2023-03-14T02:54:07;92420.59;;;7.88;100.00
24610;BME280;12758;47.890;11.694;2023-03-14T02:56:33;92421.38;;;7.89;100.00
24610;BME280;12758;47.890;11.694;2023-03-14T02:59:02;92417.44;;;7.86;100.00
24610;BME280;12758;47.890;11.694;2023-03-14T03:01:29;92412.75;;;7.83;100.00
24610;BME280;12758;47.890;11.694;2023-03-14T03:03:55;92429.50;;;8.05;100.00
24610;BME280;12758;47.890;11.694;2023-03-14T03:06:21;92434.38;;;8.15;100.00
24610;BME280;12758;47.890;11.694;2023-03-14T03:08:47;92437.38;;;8.10;100.00
24610;BME280;12758;47.890;11.694;2023-03-14T03:11:13;92455.66;;;8.01;100.00
24610;BME280;12758;47.890;11.694;2023-03-14T03:13:39;92459.50;;;8.00;100.00
24610;BME280;12758;47.890;11.694;2023-03-14T03:16:05;92434.38;;;7.83;100.00
24610;BME280;12758;47.890;11.694;2023-03-14T03:18:32;92405.25;;;7.92;100.00
24610;BME280;12758;47.890;11.694;2023-03-14T03:21:00;92384.72;;;8.04;100.00
24610;BME280;12758;47.890;11.694;2023-03-14T03:23:26;92371.81;;;8.13;100.00
24610;BME280;12758;47.890;11.694;2023-03-14T03:25:52;92358.63;;;8.11;100.00
24610;BME280;12758;47.890;11.694;2023-03-14T03:28:18;92367.97;;;8.14;100.00
24610;BME280;12758;47.890;11.694;2023-03-14T03:30:44;92351.75;;;8.14;100.00
24610;BME280;12758;47.890;11.694;2023-03-14T03:33:11;92336.84;;;8.20;100.00
24610;BME280;12758;47.890;11.694;2023-03-14T03:35:43;92331.00;;;8.18;100.00
24610;BME280;12758;47.890;11.694;2023-03-14T03:38:09;92339.56;;;8.20;100.00
24610;BME280;12758;47.890;11.694;2023-03-14T03:40:35;92333.97;;;8.13;100.00
24610;BME280;12758;47.890;11.694;2023-03-14T03:43:01;92329.97;;;8.07;100.00
24610;BME280;12758;47.890;11.694;2023-03-14T03:45:29;92350.72;;;8.03;100.00
24610;BME280;12758;47.890;11.694;2023-03-14T03:47:55;92326.28;;;8.15;100.00
24610;BME280;12758;47.890;11.694;2023-03-14T03:50:21;92344.44;;;7.99;100.00
24610;BME280;12758;47.890;11.694;2023-03-14T03:52:48;92356.81;;;8.00;100.00
24610;BME280;12758;47.890;11.694;2023-03-14T03:55:14;92355.53;;;8.09;100.00
24610;BME280;12758;47.890;11.694;2023-03-14T03:57:40;92345.31;;;8.03;100.00
24610;BME280;12758;47.890;11.694;2023-03-14T04:00:07;92366.56;;;7.88;100.00
24610;BME280;12758;47.890;11.694;2023-03-14T04:02:36;92353.84;;;7.89;100.00
24610;BME280;12758;47.890;11.694;2023-03-14T04:05:02;92352.72;;;7.90;100.00
24610;BME280;12758;47.890;11.694;2023-03-14T04:07:31;92358.84;;;8.19;100.00
24610;BME280;12758;47.890;11.694;2023-03-14T04:09:57;92349.22;;;8.05;100.00
24610;BME280;12758;47.890;11.694;2023-03-14T04:12:23;92346.53;;;7.89;100.00
24610;BME280;12758;47.890;11.694;2023-03-14T04:14:49;92340.94;;;7.82;100.00
24610;BME280;12758;47.890;11.694;2023-03-14T04:17:15;92340.78;;;7.75;100.00
24610;BME280;12758;47.890;11.694;2023-03-14T04:19:41;92324.03;;;7.54;100.00
24610;BME280;12758;47.890;11.694;2023-03-14T04:22:07;92321.31;;;7.54;100.00
24610;BME280;12758;47.890;11.694;2023-03-14T04:24:34;92305.31;;;7.77;100.00
24610;BME280;12758;47.890;11.694;2023-03-14T04:27:00;92305.50;;;7.84;100.00
24610;BME280;12758;47.890;11.694;2023-03-14T04:29:26;92300.00;;;7.80;100.00
24610;BME280;12758;47.890;11.694;2023-03-14T04:31:52;92302.44;;;7.85;100.00
24610;BME280;12758;47.890;11.694;2023-03-14T04:34:18;92286.50;;;7.96;100.00
24610;BME280;12758;47.890;11.694;2023-03-14T04:36:44;92302.09;;;7.87;100.00
24610;BME280;12758;47.890;11.694;2023-03-14T04:39:10;92300.88;;;7.84;100.00
24610;BME280;12758;47.890;11.694;2023-03-14T04:41:36;92303.13;;;7.82;100.00
24610;BME280;12758;47.890;11.694;2023-03-14T04:44:03;92301.56;;;7.81;100.00
24610;BME280;12758;47.890;11.694;2023-03-14T04:46:29;92300.97;;;7.88;100.00
24610;BME280;12758;47.890;11.694;2023-03-14T04:48:56;92297.31;;;7.80;100.00
24610;BME280;12758;47.890;11.694;2023-03-14T04:51:22;92295.03;;;7.82;100.00
24610;BME280;12758;47.890;11.694;2023-03-14T04:53:48;92293.31;;;7.90;100.00
24610;BME280;12758;47.890;11.694;2023-03-14T04:56:14;92281.69;;;7.89;100.00
24610;BME280;12758;47.890;11.694;2023-03-14T04:58:40;92274.09;;;7.95;100.00
24610;BME280;12758;47.890;11.694;2023-03-14T05:01:07;92266.53;;;8.01;100.00
24610;BME280;12758;47.890;11.694;2023-03-14T05:03:33;92263.56;;;8.06;100.00
24610;BME280;12758;47.890;11.694;2023-03-14T05:06:01;92257.97;;;7.99;100.00
24610;BME280;12758;47.890;11.694;2023-03-14T05:08:27;92259.66;;;8.03;100.00
24610;BME280;12758;47.890;11.694;2023-03-14T05:10:53;92252.66;;;8.02;100.00
24610;BME280;12758;47.890;11.694;2023-03-14T05:13:19;92232.41;;;8.12;100.00
24610;BME280;12758;47.890;11.694;2023-03-14T05:15:45;92238.25;;;8.14;100.00
24610;BME280;12758;47.890;11.694;2023-03-14T05:18:12;92235.81;;;8.09;100.00
24610;BME280;12758;47.890;11.694;2023-03-14T05:20:38;92232.41;;;8.12;100.00
24610;BME280;12758;47.890;11.694;2023-03-14T05:23:04;92229.56;;;8.05;100.00
24610;BME280;12758;47.890;11.694;2023-03-14T05:25:30;92231.06;;;8.22;100.00
24610;BME280;12758;47.890;11.694;2023-03-14T05:27:56;92218.34;;;8.03;100.00
24610;BME280;12758;47.890;11.694;2023-03-14T05:30:22;92207.16;;;8.04;100.00
24610;BME280;12758;47.890;11.694;2023-03-14T05:32:48;92215.31;;;7.88;100.00
24610;BME280;12758;47.890;11.694;2023-03-14T05:35:15;92219.84;;;7.84;100.00
24610;BME280;12758;47.890;11.694;2023-03-14T05:37:41;92215.84;;;7.78;100.00
24610;BME280;12758;47.890;11.694;2023-03-14T05:40:08;92218.13;;;7.44;100.00
24610;BME280;12758;47.890;11.694;2023-03-14T05:42:34;92221.34;;;7.34;100.00
24610;BME280;12758;47.890;11.694;2023-03-14T05:45:00;92217.31;;;7.12;100.00
24610;BME280;12758;47.890;11.694;2023-03-14T05:47:26;92215.63;;;7.36;100.00
24610;BME280;12758;47.890;11.694;2023-03-14T05:49:52;92202.28;;;7.27;100.00
24610;BME280;12758;47.890;11.694;2023-03-14T05:52:19;92207.16;;;7.37;100.00
24610;BME280;12758;47.890;11.694;2023-03-14T05:54:45;92199.75;;;7.34;100.00
24610;BME280;12758;47.890;11.694;2023-03-14T05:57:11;92207.44;;;7.32;100.00
24610;BME280;12758;47.890;11.694;2023-03-14T05:59:37;92192.88;;;7.53;100.00
24610;BME280;12758;47.890;11.694;2023-03-14T06:02:03;92195.41;;;7.61;100.00
24610;BME280;12758;47.890;11.694;2023-03-14T06:04:29;92197.75;;;7.63;100.00
24610;BME280;12758;47.890;11.694;2023-03-14T06:06:55;92200.78;;;7.77;100.00
24610;BME280;12758;47.890;11.694;2023-03-14T06:09:22;92207.38;;;7.80;100.00
24610;BME280;12758;47.890;11.694;2023-03-14T06:11:48;92199.94;;;7.92;100.00
24610;BME280;12758;47.890;11.694;2023-03-14T06:14:14;92189.84;;;7.89;100.00
24610;BME280;12758;47.890;11.694;2023-03-14T06:16:40;92198.59;;;7.67;100.00
24610;BME280;12758;47.890;11.694;2023-03-14T06:19:06;92208.97;;;7.81;100.00
24610;BME280;12758;47.890;11.694;2023-03-14T06:21:32;92197.38;;;7.80;100.00
24610;BME280;12758;47.890;11.694;2023-03-14T06:23:58;92197.03;;;7.66;100.00
24610;BME280;12758;47.890;11.694;2023-03-14T06:26:25;92203.50;;;7.77;100.00
24610;BME280;12758;47.890;11.694;2023-03-14T06:28:51;92191.44;;;7.90;100.00
24610;BME280;12758;47.890;11.694;2023-03-14T06:31:18;92177.97;;;7.75;100.00
24610;BME280;12758;47.890;11.694;2023-03-14T06:33:44;92174.34;;;7.86;100.00
24610;BME280;12758;47.890;11.694;2023-03-14T06:36:10;92160.28;;;7.77;100.00
24610;BME280;12758;47.890;11.694;2023-03-14T06:38:36;92150.09;;;8.06;100.00
24610;BME280;12758;47.890;11.694;2023-03-14T06:41:03;92160.72;;;7.99;100.00
24610;BME280;12758;47.890;11.694;2023-03-14T06:43:30;92165.13;;;7.87;100.00
24610;BME280;12758;47.890;11.694;2023-03-14T06:45:56;92170.97;;;8.09;100.00
24610;BME280;12758;47.890;11.694;2023-03-14T06:48:22;92181.44;;;8.10;100.00
24610;BME280;12758;47.890;11.694;2023-03-14T06:50:48;92186.66;;;8.19;100.00
24610;BME280;12758;47.890;11.694;2023-03-14T06:53:15;92194.47;;;7.89;100.00
24610;BME280;12758;47.890;11.694;2023-03-14T06:55:41;92190.66;;;7.90;100.00
24610;BME280;12758;47.890;11.694;2023-03-14T06:58:08;92192.22;;;7.91;100.00
24610;BME280;12758;47.890;11.694;2023-03-14T07:00:35;92198.16;;;8.16;100.00
24610;BME280;12758;47.890;11.694;2023-03-14T07:03:01;92189.16;;;7.92;100.00
24610;BME280;12758;47.890;11.694;2023-03-14T07:05:27;92193.97;;;7.83;100.00
24610;BME280;12758;47.890;11.694;2023-03-14T07:07:53;92188.94;;;7.66;100.00
24610;BME280;12758;47.890;11.694;2023-03-14T07:10:19;92189.81;;;7.54;100.00
24610;BME280;12758;47.890;11.694;2023-03-14T07:12:45;92187.56;;;7.56;100.00
24610;BME280;12758;47.890;11.694;2023-03-14T07:15:11;92197.28;;;7.77;100.00
24610;BME280;12758;47.890;11.694;2023-03-14T07:17:38;92188.59;;;7.83;100.00
24610;BME280;12758;47.890;11.694;2023-03-14T07:20:05;92194.41;;;7.85;100.00
24610;BME280;12758;47.890;11.694;2023-03-14T07:22:32;92194.94;;;7.75;100.00
24610;BME280;12758;47.890;11.694;2023-03-14T07:24:58;92200.78;;;7.77;100.00
24610;BME280;12758;47.890;11.694;2023-03-14T07:27:24;92202.38;;;7.62;100.00
24610;BME280;12758;47.890;11.694;2023-03-14T07:29:50;92195.09;;;7.82;100.00
24610;BME280;12758;47.890;11.694;2023-03-14T07:32:16;92197.91;;;8.05;100.00
24610;BME280;12758;47.890;11.694;2023-03-14T07:34:43;92185.88;;;8.19;100.00
24610;BME280;12758;47.890;11.694;2023-03-14T07:37:09;92188.06;;;8.13;100.00
24610;BME280;12758;47.890;11.694;2023-03-14T07:39:35;92182.22;;;8.30;100.00
24610;BME280;12758;47.890;11.694;2023-03-14T07:42:01;92186.06;;;8.10;100.00
24610;BME280;12758;47.890;11.694;2023-03-14T07:44:27;92189.34;;;8.19;100.00
24610;BME280;12758;47.890;11.694;2023-03-14T07:46:53;92187.28;;;8.12;100.00
24610;BME280;12758;47.890;11.694;2023-03-14T07:49:19;92202.31;;;8.29;100.00
24610;BME280;12758;47.890;11.694;2023-03-14T07:51:47;92190.25;;;8.07;100.00
24610;BME280;12758;47.890;11.694;2023-03-14T07:54:13;92190.56;;;7.86;100.00
24610;BME280;12758;47.890;11.694;2023-03-14T07:56:39;92195.44;;;7.97;100.00
24610;BME280;12758;47.890;11.694;2023-03-14T07:59:06;92191.97;;;7.80;100.00
24610;BME280;12758;47.890;11.694;2023-03-14T08:01:32;92190.03;;;7.97;100.00
24610;BME280;12758;47.890;11.694;2023-03-14T08:03:58;92192.84;;;7.84;100.00
24610;BME280;12758;47.890;11.694;2023-03-14T08:06:24;92195.44;;;7.97;100.00
24610;BME280;12758;47.890;11.694;2023-03-14T08:08:51;92189.69;;;7.82;100.00
24610;BME280;12758;47.890;11.694;2023-03-14T08:11:17;92195.81;;;7.79;100.00
24610;BME280;12758;47.890;11.694;2023-03-14T08:13:43;92190.28;;;7.91;100.00
24610;BME280;12758;47.890;11.694;2023-03-14T08:16:15;92192.81;;;8.00;100.00
24610;BME280;12758;47.890;11.694;2023-03-14T08:18:41;92200.44;;;8.14;100.00
24610;BME280;12758;47.890;11.694;2023-03-14T08:21:07;92197.13;;;8.05;100.00
24610;BME280;12758;47.890;11.694;2023-03-14T08:23:33;92195.72;;;8.11;100.00
24610;BME280;12758;47.890;11.694;2023-03-14T08:25:59;92189.63;;;8.14;100.00
24610;BME280;12758;47.890;11.694;2023-03-14T08:28:25;92203.13;;;8.14;100.00
24610;BME280;12758;47.890;11.694;2023-03-14T08:30:55;92206.53;;;8.11;100.00
24610;BME280;12758;47.890;11.694;2023-03-14T08:33:22;92206.59;;;8.14;100.00
24610;BME280;12758;47.890;11.694;2023-03-14T08:35:48;92209.94;;;8.08;100.00
24610;BME280;12758;47.890;11.694;2023-03-14T08:38:14;92213.34;;;8.05;100.00
24610;BME280;12758;47.890;11.694;2023-03-14T08:40:40;92206.38;;;8.04;100.00
24610;BME280;12758;47.890;11.694;2023-03-14T08:43:06;92204.97;;;8.10;100.00
24610;BME280;12758;47.890;11.694;2023-03-14T08:45:32;92214.31;;;8.12;100.00
24610;BME280;12758;47.890;11.694;2023-03-14T08:47:58;92208.91;;;8.12;100.00
24610;BME280;12758;47.890;11.694;2023-03-14T08:50:25;92212.66;;;8.08;100.00
24610;BME280;12758;47.890;11.694;2023-03-14T08:52:51;92208.97;;;8.16;100.00
24610;BME280;12758;47.890;11.694;2023-03-14T08:55:17;92221.44;;;8.05;100.00
24610;BME280;12758;47.890;11.694;2023-03-14T08:57:43;92227.66;;;7.89;100.00
24610;BME280;12758;47.890;11.694;2023-03-14T09:00:11;92217.50;;;8.18;100.00
24610;BME280;12758;47.890;11.694;2023-03-14T09:02:40;92224.03;;;8.17;100.00
24610;BME280;12758;47.890;11.694;2023-03-14T09:05:08;92234.09;;;8.01;100.00
24610;BME280;12758;47.890;11.694;2023-03-14T09:07:34;92229.16;;;8.03;100.00
24610;BME280;12758;47.890;11.694;2023-03-14T09:10:00;92229.19;;;8.22;100.00
24610;BME280;12758;47.890;11.694;2023-03-14T09:12:26;92234.34;;;8.11;100.00
24610;BME280;12758;47.890;11.694;2023-03-14T09:14:52;92243.28;;;7.96;100.00
24610;BME280;12758;47.890;11.694;2023-03-14T09:17:19;92239.28;;;7.74;100.00
24610;BME280;12758;47.890;11.694;2023-03-14T09:19:45;92249.81;;;7.79;100.00
24610;BME280;12758;47.890;11.694;2023-03-14T09:22:11;92254.34;;;7.75;100.00
24610;BME280;12758;47.890;11.694;2023-03-14T09:24:37;92248.25;;;7.78;100.00
24610;BME280;12758;47.890;11.694;2023-03-14T09:27:03;92248.41;;;8.01;100.00
24610;BME280;12758;47.890;11.694;2023-03-14T09:29:29;92254.69;;;7.89;100.00
24610;BME280;12758;47.890;11.694;2023-03-14T09:31:55;92246.91;;;8.04;100.00
24610;BME280;12758;47.890;11.694;2023-03-14T09:34:23;92244.38;;;8.11;100.00
24610;BME280;12758;47.890;11.694;2023-03-14T09:36:49;92238.00;;;8.19;100.00
24610;BME280;12758;47.890;11.694;2023-03-14T09:39:15;92237.16;;;7.99;100.00
24610;BME280;12758;47.890;11.694;2023-03-14T09:41:43;92222.44;;;8.32;100.00
24610;BME280;12758;47.890;11.694;2023-03-14T09:44:11;92219.06;;;8.19;100.00
24610;BME280;12758;47.890;11.694;2023-03-14T09:46:39;92223.22;;;7.97;100.00
24610;BME280;12758;47.890;11.694;2023-03-14T09:49:12;92220.84;;;7.96;100.00
24610;BME280;12758;47.890;11.694;2023-03-14T09:51:40;92227.09;;;7.80;100.00
24610;BME280;12758;47.890;11.694;2023-03-14T09:54:15;92197.00;;;7.98;100.00
24610;BME280;12758;47.890;11.694;2023-03-14T09:56:43;92191.94;;;7.96;100.00
24610;BME280;12758;47.890;11.694;2023-03-14T09:59:10;92197.00;;;7.98;100.00
24610;BME280;12758;47.890;11.694;2023-03-14T10:01:38;92198.13;;;7.97;100.00
24610;BME280;12758;47.890;11.694;2023-03-14T10:04:06;92214.44;;;7.84;100.00
24610;BME280;12758;47.890;11.694;2023-03-14T10:06:35;92208.50;;;7.94;100.00
24610;BME280;12758;47.890;11.694;2023-03-14T10:09:03;92203.25;;;8.02;100.00
24610;BME280;12758;47.890;11.694;2023-03-14T10:11:31;92205.53;;;8.00;100.00
24610;BME280;12758;47.890;11.694;2023-03-14T10:14:06;92204.38;;;8.01;100.00
24610;BME280;12758;47.890;11.694;2023-03-14T10:16:33;92203.13;;;8.14;100.00
24610;BME280;12758;47.890;11.694;2023-03-14T10:19:02;92194.69;;;8.15;100.00
24610;BME280;12758;47.890;11.694;2023-03-14T10:21:29;92207.13;;;8.20;100.00
24610;BME280;12758;47.890;11.694;2023-03-14T10:24:07;92196.19;;;8.32;100.00
24610;BME280;12758;47.890;11.694;2023-03-14T10:26:34;92204.00;;;8.37;100.00
24610;BME280;12758;47.890;11.694;2023-03-14T10:29:02;92198.34;;;8.43;100.00
24610;BME280;12758;47.890;11.694;2023-03-14T10:31:28;92196.50;;;8.47;100.00
24610;BME280;12758;47.890;11.694;2023-03-14T10:34:15;92195.47;;;8.35;100.00
24610;BME280;12758;47.890;11.694;2023-03-14T10:36:42;92209.41;;;8.37;100.00
24610;BME280;12758;47.890;11.694;2023-03-14T10:39:23;92206.19;;;8.48;100.00
24610;BME280;12758;47.890;11.694;2023-03-14T10:41:53;92218.00;;;8.39;100.00
24610;BME280;12758;47.890;11.694;2023-03-14T10:44:20;92215.16;;;8.52;100.00
24610;BME280;12758;47.890;11.694;2023-03-14T10:46:55;92209.16;;;8.62;100.00
24610;BME280;12758;47.890;11.694;2023-03-14T10:49:25;92211.72;;;8.74;100.00
24610;BME280;12758;47.890;11.694;2023-03-14T10:51:52;92220.25;;;8.76;100.00
24610;BME280;12758;47.890;11.694;2023-03-14T10:54:20;92211.03;;;8.77;100.00
24610;BME280;12758;47.890;11.694;2023-03-14T10:56:56;92219.53;;;8.79;100.00
24610;BME280;12758;47.890;11.694;2023-03-14T10:59:22;92216.28;;;8.90;100.00
24610;BME280;12758;47.890;11.694;2023-03-14T11:01:51;92215.97;;;8.95;100.00
24610;BME280;12758;47.890;11.694;2023-03-14T11:04:27;92218.41;;;9.00;100.00
24610;BME280;12758;47.890;11.694;2023-03-14T11:07:01;92211.50;;;9.02;100.00
24610;BME280;12758;47.890;11.694;2023-03-14T11:09:32;92210.41;;;9.07;100.00
24610;BME280;12758;47.890;11.694;2023-03-14T11:12:04;92204.94;;;9.26;100.00
24610;BME280;12758;47.890;11.694;2023-03-14T11:14:39;92208.09;;;9.28;100.00
24610;BME280;12758;47.890;11.694;2023-03-14T11:17:10;92209.91;;;9.44;100.00
24610;BME280;12758;47.890;11.694;2023-03-14T11:19:49;92199.13;;;9.47;100.00
24610;BME280;12758;47.890;11.694;2023-03-14T11:22:23;92203.09;;;9.53;100.00
24610;BME280;12758;47.890;11.694;2023-03-14T11:24:59;92210.13;;;9.58;100.00
24610;BME280;12758;47.890;11.694;2023-03-14T11:27:33;92214.31;;;9.78;100.00
24610;BME280;12758;47.890;11.694;2023-03-14T11:30:02;92202.34;;;9.79;100.00
24610;BME280;12758;47.890;11.694;2023-03-14T11:32:37;92196.59;;;9.85;100.00
24610;BME280;12758;47.890;11.694;2023-03-14T11:35:13;92197.38;;;9.85;100.00
24610;BME280;12758;47.890;11.694;2023-03-14T11:37:43;92195.88;;;9.88;100.00
24610;BME280;12758;47.890;11.694;2023-03-14T11:40:14;92190.78;;;10.09;100.00
24610;BME280;12758;47.890;11.694;2023-03-14T11:42:44;92190.25;;;10.26;100.00
24610;BME280;12758;47.890;11.694;2023-03-14T11:45:14;92186.69;;;10.22;100.00
24610;BME280;12758;47.890;11.694;2023-03-14T11:47:42;92184.88;;;10.30;100.00
24610;BME280;12758;47.890;11.694;2023-03-14T11:50:14;92180.47;;;10.48;100.00
24610;BME280;12758;47.890;11.694;2023-03-14T11:52:45;92182.56;;;10.29;100.00
24610;BME280;12758;47.890;11.694;2023-03-14T11:55:17;92167.94;;;10.37;100.00
24610;BME280;12758;47.890;11.694;2023-03-14T11:57:45;92171.84;;;10.39;100.00
24610;BME280;12758;47.890;11.694;2023-03-14T12:00:14;92167.31;;;10.47;100.00
24610;BME280;12758;47.890;11.694;2023-03-14T12:02:45;92168.16;;;10.55;100.00
24610;BME280;12758;47.890;11.694;2023-03-14T12:05:30;92163.44;;;10.48;100.00
24610;BME280;12758;47.890;11.694;2023-03-14T12:08:17;92168.94;;;10.55;100.00
24610;BME280;12758;47.890;11.694;2023-03-14T12:10:48;92170.94;;;10.62;100.00
24610;BME280;12758;47.890;11.694;2023-03-14T12:13:16;92166.84;;;10.75;100.00
24610;BME280;12758;47.890;11.694;2023-03-14T12:15:47;92165.16;;;10.63;100.00
24610;BME280;12758;47.890;11.694;2023-03-14T12:18:19;92165.94;;;10.64;100.00
24610;BME280;12758;47.890;11.694;2023-03-14T12:20:51;92159.81;;;10.70;100.00
24610;BME280;12758;47.890;11.694;2023-03-14T12:23:19;92166.22;;;10.89;100.00
24610;BME280;12758;47.890;11.694;2023-03-14T12:25:46;92160.06;;;10.92;100.00
24610;BME280;12758;47.890;11.694;2023-03-14T12:28:19;92165.13;;;10.97;100.00
24610;BME280;12758;47.890;11.694;2023-03-14T12:30:46;92160.38;;;10.87;100.00
24610;BME280;12758;47.890;11.694;2023-03-14T12:33:28;92160.97;;;10.69;100.00
24610;BME280;12758;47.890;11.694;2023-03-14T12:36:11;92160.63;;;10.75;100.00
24610;BME280;12758;47.890;11.694;2023-03-14T12:38:49;92156.44;;;10.81;100.00
24610;BME280;12758;47.890;11.694;2023-03-14T12:41:20;92161.50;;;10.82;100.00
24610;BME280;12758;47.890;11.694;2023-03-14T12:43:48;92166.78;;;10.71;100.00
24610;BME280;12758;47.890;11.694;2023-03-14T12:46:22;92169.94;;;10.73;100.00
24610;BME280;12758;47.890;11.694;2023-03-14T12:48:49;92179.94;;;10.66;100.00
24610;BME280;12758;47.890;11.694;2023-03-14T12:51:16;92185.22;;;10.55;100.00
24610;BME280;12758;47.890;11.694;2023-03-14T12:59:34;92194.31;;;10.13;100.00